createdAt,value
2023-03-26T00:01:46.921Z,10.73
2023-03-26T00:04:19.791Z,8.27
2023-03-26T00:06:49.492Z,9.68
2023-03-26T00:09:18.129Z,8.98
2023-03-26T00:11:47.452Z,9.43
2023-03-26T00:14:18.214Z,8.52
2023-03-26T00:16:47.496Z,10.05
2023-03-26T00:21:46.167Z,9.35
2023-03-26T00:24:16.282Z,15.65
2023-03-26T00:26:48.923Z,8.48
2023-03-26T00:29:16.955Z,9.35
2023-03-26T00:31:46.376Z,5.07
2023-03-26T00:36:46.920Z,13.00
2023-03-26T00:39:18.150Z,11.82
2023-03-26T00:41:46.364Z,10.90
2023-03-26T00:44:14.629Z,12.88
2023-03-26T00:46:43.488Z,13.45
2023-03-26T00:49:14.883Z,12.45
2023-03-26T00:51:45.472Z,16.27
2023-03-26T00:56:41.671Z,10.25
2023-03-26T00:59:10.758Z,13.45
2023-03-26T01:01:39.799Z,13.50
2023-03-26T01:04:28.526Z,15.45
2023-03-26T01:07:01.637Z,13.87
2023-03-26T01:09:35.178Z,14.45
2023-03-26T01:12:06.639Z,16.45
2023-03-26T01:14:35.584Z,12.00
2023-03-26T01:17:06.042Z,12.30
2023-03-26T01:19:41.821Z,9.57
2023-03-26T01:22:14.690Z,14.00
2023-03-26T01:24:47.614Z,11.63
2023-03-26T01:27:33.667Z,12.48
2023-03-26T01:30:12.017Z,15.02
2023-03-26T01:32:51.338Z,11.65
2023-03-26T01:35:30.675Z,12.45
2023-03-26T01:38:10.899Z,10.73
2023-03-26T01:40:47.427Z,12.50
2023-03-26T01:43:24.873Z,11.02
2023-03-26T01:45:55.215Z,15.05
2023-03-26T01:48:30.707Z,12.65
2023-03-26T01:50:59.611Z,14.90
2023-03-26T01:53:28.152Z,13.45
2023-03-26T01:56:07.635Z,14.63
2023-03-26T01:58:41.198Z,12.93
2023-03-26T02:01:25.455Z,10.43
2023-03-26T02:04:17.188Z,12.35
2023-03-26T02:06:53.098Z,12.27
2023-03-26T02:09:26.062Z,12.93
2023-03-26T02:11:57.238Z,12.32
2023-03-26T02:14:26.122Z,11.20
2023-03-26T02:16:54.041Z,11.27
2023-03-26T02:19:25.040Z,10.70
2023-03-26T02:21:53.070Z,13.13
2023-03-26T02:24:22.076Z,14.40
2023-03-26T02:26:58.574Z,14.48
2023-03-26T02:29:27.705Z,11.52
2023-03-26T02:31:55.739Z,14.80
2023-03-26T02:34:24.752Z,12.43
2023-03-26T02:36:54.729Z,12.85
2023-03-26T02:39:23.398Z,11.32
2023-03-26T02:42:07.254Z,12.70
2023-03-26T02:44:41.014Z,11.45
2023-03-26T02:47:30.916Z,9.82
2023-03-26T02:50:17.650Z,15.80
2023-03-26T02:53:05.858Z,15.70
2023-03-26T02:55:37.972Z,12.68
2023-03-26T02:58:08.341Z,12.48
2023-03-26T03:00:38.515Z,12.85
2023-03-26T03:03:28.953Z,12.75
2023-03-26T03:05:58.111Z,9.93
2023-03-26T03:08:39.296Z,11.25
2023-03-26T03:11:36.225Z,8.80
2023-03-26T03:14:08.781Z,13.20
2023-03-26T03:16:37.437Z,11.73
2023-03-26T03:19:11.173Z,15.48
2023-03-26T03:21:41.287Z,11.15
2023-03-26T03:24:14.300Z,10.98
2023-03-26T03:26:47.760Z,14.85
2023-03-26T03:29:38.403Z,16.83
2023-03-26T03:32:27.674Z,12.93
2023-03-26T03:35:01.711Z,14.88
2023-03-26T03:37:30.688Z,13.45
2023-03-26T03:39:59.536Z,18.63
2023-03-26T03:42:31.867Z,21.30
2023-03-26T03:45:04.654Z,16.98
2023-03-26T03:48:06.887Z,13.02
2023-03-26T03:50:40.808Z,21.05
2023-03-26T03:53:22.322Z,20.75
2023-03-26T03:55:54.061Z,23.38
2023-03-26T03:58:31.609Z,22.83
2023-03-26T04:01:11.167Z,27.08
2023-03-26T04:03:59.604Z,30.50
2023-03-26T04:06:40.214Z,29.48
2023-03-26T04:09:11.236Z,26.58
2023-03-26T04:11:40.529Z,26.15
2023-03-26T04:14:32.642Z,25.25
2023-03-26T04:17:05.417Z,25.00
2023-03-26T04:19:37.572Z,32.38
2023-03-26T04:22:09.460Z,29.73
2023-03-26T04:24:46.682Z,32.50
2023-03-26T04:27:36.841Z,26.75
2023-03-26T04:30:36.541Z,29.73
2023-03-26T04:33:17.797Z,35.35
2023-03-26T04:35:48.732Z,30.92
2023-03-26T04:38:18.717Z,28.25
2023-03-26T04:40:51.456Z,31.58
2023-03-26T04:43:42.397Z,38.17
2023-03-26T04:46:24.061Z,29.38
2023-03-26T04:49:03.396Z,36.42
2023-03-26T04:54:21.639Z,32.05
2023-03-26T04:57:00.412Z,39.50
2023-03-26T04:59:34.765Z,39.53
2023-03-26T05:02:10.049Z,38.22
2023-03-26T05:04:57.171Z,38.80
2023-03-26T05:07:30.188Z,32.88
2023-03-26T05:10:03.365Z,44.13
2023-03-26T05:13:04.253Z,35.55
2023-03-26T05:15:36.312Z,48.85
2023-03-26T05:18:11.628Z,46.47
2023-03-26T05:20:47.017Z,42.72
2023-03-26T05:23:15.769Z,43.08
2023-03-26T05:25:47.349Z,43.25
2023-03-26T05:28:24.876Z,53.13
2023-03-26T05:30:59.299Z,47.80
2023-03-26T05:33:32.642Z,49.08
2023-03-26T05:36:09.338Z,41.53
2023-03-26T05:38:57.990Z,37.45
2023-03-26T05:41:49.143Z,42.15
2023-03-26T05:44:19.468Z,39.63
2023-03-26T05:46:47.512Z,40.08
2023-03-26T05:49:22.393Z,42.45
2023-03-26T05:51:53.735Z,36.47
2023-03-26T05:54:53.130Z,30.40
2023-03-26T05:57:40.236Z,39.08
2023-03-26T06:00:29.549Z,29.40
2023-03-26T06:02:58.891Z,35.00
2023-03-26T06:05:50.429Z,31.35
2023-03-26T06:08:23.801Z,36.35
2023-03-26T06:10:59.884Z,43.88
2023-03-26T06:13:29.408Z,32.05
2023-03-26T06:15:58.944Z,32.60
2023-03-26T06:18:36.437Z,32.80
2023-03-26T06:21:25.381Z,34.30
2023-03-26T06:24:00.347Z,33.22
2023-03-26T06:26:47.925Z,32.40
2023-03-26T06:29:34.097Z,32.25
2023-03-26T06:32:26.963Z,27.55
2023-03-26T06:35:01.410Z,29.95
2023-03-26T06:37:29.828Z,24.90
2023-03-26T06:40:03.851Z,29.10
2023-03-26T06:43:08.302Z,20.08
2023-03-26T06:45:59.037Z,25.98
2023-03-26T06:48:33.282Z,25.23
2023-03-26T06:51:22.656Z,22.85
2023-03-26T06:54:23.039Z,24.40
2023-03-26T06:57:00.318Z,23.90
2023-03-26T06:59:37.298Z,18.60
2023-03-26T07:02:25.734Z,22.25
2023-03-26T07:05:13.057Z,24.60
2023-03-26T07:08:00.627Z,18.88
2023-03-26T07:10:48.244Z,22.35
2023-03-26T07:13:21.982Z,21.73
2023-03-26T07:16:09.102Z,22.77
2023-03-26T07:18:55.755Z,23.75
2023-03-26T07:21:28.318Z,20.45
2023-03-26T07:23:57.769Z,25.83
2023-03-26T07:26:57.377Z,23.05
2023-03-26T07:29:39.152Z,21.00
2023-03-26T07:32:29.856Z,26.77
2023-03-26T07:35:24.720Z,22.02
2023-03-26T07:38:27.420Z,23.15
2023-03-26T07:41:16.015Z,26.45
2023-03-26T07:44:27.634Z,20.73
2023-03-26T07:47:26.368Z,20.35
2023-03-26T07:50:18.316Z,17.67
2023-03-26T07:53:07.140Z,24.90
2023-03-26T07:56:01.450Z,18.67
2023-03-26T07:59:20.797Z,21.63
2023-03-26T08:02:44.277Z,25.08
2023-03-26T08:05:33.906Z,22.80
2023-03-26T08:08:16.609Z,22.88
2023-03-26T08:11:13.927Z,21.75
2023-03-26T08:14:03.583Z,20.15
2023-03-26T08:16:38.172Z,22.23
2023-03-26T08:19:17.313Z,21.38
2023-03-26T08:21:51.633Z,18.10
2023-03-26T08:24:23.910Z,30.90
2023-03-26T08:27:00.597Z,20.45
2023-03-26T08:29:39.034Z,25.00
2023-03-26T08:32:14.327Z,23.50
2023-03-26T08:34:42.304Z,23.48
2023-03-26T08:37:11.663Z,26.90
2023-03-26T08:39:42.418Z,24.30
2023-03-26T08:42:38.177Z,25.98
2023-03-26T08:45:33.245Z,25.13
2023-03-26T08:48:47.084Z,24.83
2023-03-26T08:51:54.892Z,24.05
2023-03-26T08:54:49.481Z,21.85
2023-03-26T08:57:55.258Z,27.73
2023-03-26T09:00:59.620Z,24.58
2023-03-26T09:03:47.840Z,19.38
2023-03-26T09:06:34.127Z,22.52
2023-03-26T09:09:38.342Z,25.75
2023-03-26T09:12:56.993Z,21.40
2023-03-26T09:15:48.008Z,23.92
2023-03-26T09:18:40.577Z,25.67
2023-03-26T09:21:37.254Z,29.52
2023-03-26T09:24:28.385Z,21.35
2023-03-26T09:27:08.884Z,20.17
2023-03-26T09:30:15.588Z,21.85
2023-03-26T09:33:15.190Z,20.00
2023-03-26T09:36:19.274Z,22.20
2023-03-26T09:38:55.380Z,24.67
2023-03-26T09:41:39.337Z,20.23
2023-03-26T09:44:52.134Z,23.08
2023-03-26T09:47:51.670Z,23.02
2023-03-26T09:53:10.282Z,20.00
2023-03-26T09:55:51.422Z,21.23
2023-03-26T09:58:42.541Z,20.80
2023-03-26T10:01:21.129Z,22.75
2023-03-26T10:04:01.781Z,23.20
2023-03-26T10:06:46.409Z,19.02
2023-03-26T10:09:35.335Z,21.13
2023-03-26T10:12:10.828Z,21.88
2023-03-26T10:14:41.962Z,21.23
2023-03-26T10:17:21.279Z,21.00
2023-03-26T10:19:58.388Z,22.25
2023-03-26T10:22:41.107Z,24.92
2023-03-26T10:25:22.438Z,19.17
2023-03-26T10:27:57.495Z,22.10
2023-03-26T10:30:45.164Z,22.45
2023-03-26T10:33:16.163Z,19.38
2023-03-26T10:35:48.453Z,22.88
2023-03-26T10:38:25.094Z,17.35
2023-03-26T10:40:59.671Z,14.98
2023-03-26T10:43:54.684Z,21.02
2023-03-26T10:46:36.761Z,17.42
2023-03-26T10:49:17.192Z,22.30
2023-03-26T10:51:50.391Z,25.00
2023-03-26T10:54:27.887Z,19.95
2023-03-26T10:56:56.584Z,19.58
2023-03-26T10:59:27.437Z,18.67
2023-03-26T11:02:03.666Z,15.27
2023-03-26T11:04:35.660Z,13.88
2023-03-26T11:07:09.153Z,15.85
2023-03-26T11:09:41.588Z,15.63
2023-03-26T11:12:26.339Z,17.33
2023-03-26T11:15:00.407Z,17.90
2023-03-26T11:17:39.588Z,14.88
2023-03-26T11:20:11.617Z,12.68
2023-03-26T11:22:44.262Z,16.92
2023-03-26T11:25:30.699Z,21.45
2023-03-26T11:28:10.538Z,13.93
2023-03-26T11:30:42.772Z,17.20
2023-03-26T11:33:12.865Z,16.02
2023-03-26T11:35:42.795Z,16.35
2023-03-26T11:38:15.218Z,15.35
2023-03-26T11:40:46.750Z,15.15
2023-03-26T11:43:26.439Z,13.55
2023-03-26T11:45:54.820Z,22.70
2023-03-26T11:48:25.111Z,17.20
2023-03-26T11:50:57.421Z,15.73
2023-03-26T11:53:29.075Z,17.27
2023-03-26T11:56:00.326Z,14.85
2023-03-26T11:58:32.010Z,20.75
2023-03-26T12:01:00.977Z,16.27
2023-03-26T12:03:30.756Z,14.38
2023-03-26T12:05:59.511Z,17.13
2023-03-26T12:08:33.057Z,12.40
2023-03-26T12:11:09.347Z,13.63
2023-03-26T12:13:42.314Z,10.52
2023-03-26T12:16:11.878Z,14.35
2023-03-26T12:21:11.052Z,12.02
2023-03-26T12:23:51.696Z,14.40
2023-03-26T12:26:21.153Z,10.35
2023-03-26T12:28:51.365Z,15.30
2023-03-26T12:31:20.742Z,14.18
2023-03-26T12:34:05.292Z,17.38
2023-03-26T12:36:34.055Z,14.40
2023-03-26T12:40:07.305Z,13.32
2023-03-26T12:44:49.205Z,13.95
2023-03-26T12:45:17.326Z,13.77
2023-03-26T12:47:55.708Z,13.55
2023-03-26T12:50:35.942Z,14.23
2023-03-26T12:53:19.218Z,14.32
2023-03-26T12:55:53.880Z,11.63
2023-03-26T12:58:30.115Z,12.43
2023-03-26T13:01:03.156Z,7.75
2023-03-26T13:03:37.872Z,6.03
2023-03-26T13:06:14.395Z,5.55
2023-03-26T13:08:53.337Z,5.68
2023-03-26T13:11:28.101Z,8.32
2023-03-26T13:14:06.224Z,6.45
2023-03-26T13:16:43.138Z,6.07
2023-03-26T13:19:13.954Z,4.80
2023-03-26T13:21:50.750Z,8.32
2023-03-26T13:24:27.049Z,8.43
2023-03-26T13:27:02.673Z,9.40
2023-03-26T13:29:36.482Z,9.52
2023-03-26T13:32:14.356Z,12.85
2023-03-26T13:34:56.142Z,5.95
2023-03-26T13:37:27.590Z,5.22
2023-03-26T13:40:01.780Z,4.68
2023-03-26T13:42:37.865Z,9.13
2023-03-26T13:45:11.517Z,5.25
2023-03-26T13:47:45.801Z,6.53
2023-03-26T13:50:20.361Z,4.20
2023-03-26T13:52:52.274Z,5.32
2023-03-26T13:55:23.590Z,9.98
2023-03-26T13:57:55.862Z,8.23
2023-03-26T14:00:28.504Z,5.35
2023-03-26T14:02:59.202Z,5.53
2023-03-26T14:05:29.770Z,6.95
2023-03-26T14:08:02.242Z,6.28
2023-03-26T14:10:34.740Z,3.65
2023-03-26T14:13:03.878Z,3.90
2023-03-26T14:15:32.734Z,2.73
2023-03-26T14:20:57.536Z,4.22
2023-03-26T14:23:48.047Z,3.58
2023-03-26T14:26:21.907Z,3.17
2023-03-26T14:28:58.980Z,3.85
2023-03-26T14:31:29.140Z,3.95
2023-03-26T14:34:07.599Z,3.90
2023-03-26T14:36:47.752Z,3.90
2023-03-26T14:39:26.928Z,4.32
2023-03-26T14:41:58.378Z,4.43
2023-03-26T14:44:47.685Z,5.30
2023-03-26T14:47:18.483Z,7.57
2023-03-26T14:50:04.550Z,6.55
2023-03-26T14:52:39.480Z,8.32
2023-03-26T14:55:17.363Z,6.90
2023-03-26T14:58:03.950Z,5.35
2023-03-26T15:01:04.351Z,6.70
2023-03-26T15:03:56.532Z,8.32
2023-03-26T15:06:40.410Z,5.30
2023-03-26T15:09:26.071Z,8.10
2023-03-26T15:12:12.269Z,10.93
2023-03-26T15:15:00.429Z,11.93
2023-03-26T15:17:55.331Z,13.77
2023-03-26T15:20:55.766Z,12.55
2023-03-26T15:23:43.307Z,13.07
2023-03-26T15:26:31.004Z,15.65
2023-03-26T15:29:30.517Z,15.80
2023-03-26T15:32:11.998Z,6.90
2023-03-26T15:34:56.148Z,13.52
2023-03-26T15:37:38.775Z,14.27
2023-03-26T15:40:19.476Z,10.10
2023-03-26T15:42:52.629Z,10.32
2023-03-26T15:45:31.227Z,12.45
2023-03-26T15:48:26.845Z,12.88
2023-03-26T15:50:58.256Z,11.93
2023-03-26T15:53:35.640Z,20.95
2023-03-26T15:56:22.551Z,16.05
2023-03-26T15:58:53.471Z,10.73
2023-03-26T16:01:39.519Z,12.52
2023-03-26T16:04:14.762Z,11.05
2023-03-26T16:06:50.524Z,10.68
2023-03-26T16:09:27.016Z,14.75
2023-03-26T16:11:56.101Z,12.55
2023-03-26T16:14:24.952Z,10.98
2023-03-26T16:16:59.651Z,11.80
2023-03-26T16:19:41.149Z,13.32
2023-03-26T16:22:15.149Z,11.73
2023-03-26T16:24:46.532Z,9.23
2023-03-26T16:27:34.561Z,8.27
2023-03-26T16:30:09.466Z,8.73
2023-03-26T16:32:42.268Z,11.38
2023-03-26T16:35:34.425Z,16.98
2023-03-26T16:38:06.205Z,11.32
2023-03-26T16:40:34.740Z,10.55
2023-03-26T16:43:24.705Z,10.70
2023-03-26T16:48:27.371Z,11.70
2023-03-26T16:50:57.867Z,13.40
2023-03-26T16:53:31.083Z,8.80
2023-03-26T16:56:02.845Z,13.82
2023-03-26T16:58:34.870Z,10.63
2023-03-26T17:01:08.711Z,11.73
2023-03-26T17:03:45.420Z,12.63
2023-03-26T17:06:26.410Z,10.60
2023-03-26T17:08:58.034Z,10.23
2023-03-26T17:11:30.365Z,11.07
2023-03-26T17:14:05.383Z,6.15
2023-03-26T17:16:34.439Z,7.05
2023-03-26T17:19:08.566Z,9.90
2023-03-26T17:21:46.418Z,10.43
2023-03-26T17:24:19.503Z,9.35
2023-03-26T17:27:04.515Z,11.02
2023-03-26T17:29:39.539Z,11.25
2023-03-26T17:32:12.753Z,6.85
2023-03-26T17:34:55.521Z,6.97
2023-03-26T17:37:49.608Z,9.63
2023-03-26T17:40:36.323Z,4.22
2023-03-26T17:43:06.292Z,8.88
2023-03-26T17:48:06.405Z,10.82
2023-03-26T17:50:41.169Z,9.80
2023-03-26T17:53:17.438Z,9.82
2023-03-26T17:55:46.535Z,11.13
2023-03-26T17:58:27.422Z,10.63
2023-03-26T18:00:59.937Z,8.20
2023-03-26T18:03:31.283Z,13.40
2023-03-26T18:06:06.881Z,13.57
2023-03-26T18:08:43.012Z,7.07
2023-03-26T18:11:25.621Z,13.85
2023-03-26T18:14:17.905Z,8.68
2023-03-26T18:16:48.018Z,11.63
2023-03-26T18:19:19.722Z,5.97
2023-03-26T18:21:50.427Z,10.13
2023-03-26T18:27:09.597Z,11.73
2023-03-26T18:29:43.981Z,9.98
2023-03-26T18:32:22.119Z,7.70
2023-03-26T18:34:53.047Z,6.85
2023-03-26T18:37:23.141Z,9.98
2023-03-26T18:42:24.862Z,6.60
2023-03-26T18:44:54.217Z,7.70
2023-03-26T18:47:31.192Z,9.90
2023-03-26T18:49:59.480Z,10.73
2023-03-26T18:52:29.348Z,5.80
2023-03-26T18:57:26.419Z,6.93
2023-03-26T18:59:55.953Z,7.25
2023-03-26T19:02:26.868Z,14.10
2023-03-26T19:04:56.858Z,9.93
2023-03-26T19:07:26.529Z,9.63
2023-03-26T19:09:57.352Z,5.68
2023-03-26T19:14:57.950Z,6.07
2023-03-26T19:17:28.791Z,5.93
2023-03-26T19:19:57.633Z,5.38
2023-03-26T19:22:26.091Z,6.38
2023-03-26T19:24:58.648Z,4.03
2023-03-26T19:27:27.064Z,13.75
2023-03-26T19:29:54.793Z,6.88
2023-03-26T19:32:29.476Z,10.73
2023-03-26T19:34:59.914Z,8.63
2023-03-26T19:37:29.941Z,8.13
2023-03-26T19:40:07.199Z,9.82
2023-03-26T19:42:42.912Z,7.93
2023-03-26T19:45:15.685Z,8.02
2023-03-26T19:47:54.731Z,7.47
2023-03-26T19:50:34.525Z,8.80
2023-03-26T19:53:15.331Z,6.85
2023-03-26T19:55:55.701Z,5.78
2023-03-26T19:58:26.361Z,12.63
2023-03-26T20:03:25.417Z,8.45
2023-03-26T20:05:54.741Z,8.05
2023-03-26T20:08:26.868Z,6.93
2023-03-26T20:10:59.929Z,5.72
2023-03-26T20:13:27.782Z,7.70
2023-03-26T20:16:05.008Z,11.07
2023-03-26T20:18:34.636Z,5.93
2023-03-26T20:21:02.372Z,2.33
2023-03-26T20:23:30.718Z,6.57
2023-03-26T20:26:00.033Z,5.47
2023-03-26T20:28:28.065Z,5.65
2023-03-26T20:30:56.138Z,3.00
2023-03-26T20:33:25.844Z,9.32
2023-03-26T20:35:53.897Z,9.38
2023-03-26T20:38:32.938Z,5.47
2023-03-26T20:41:10.924Z,10.30
2023-03-26T20:43:38.980Z,6.50
2023-03-26T20:46:06.848Z,5.28
2023-03-26T20:48:35.447Z,3.25
2023-03-26T20:51:03.455Z,5.50
2023-03-26T20:53:31.962Z,9.70
2023-03-26T20:56:00.487Z,7.63
2023-03-26T20:58:30.704Z,4.57
2023-03-26T21:01:01.427Z,6.22
2023-03-26T21:03:29.333Z,11.20
2023-03-26T21:06:00.776Z,8.43
2023-03-26T21:08:35.620Z,9.55
2023-03-26T21:11:04.815Z,4.80
2023-03-26T21:13:38.404Z,7.03
2023-03-26T21:16:07.983Z,6.90
2023-03-26T21:18:36.856Z,7.68
2023-03-26T21:21:20.055Z,10.77
2023-03-26T21:23:57.863Z,6.70
2023-03-26T21:26:30.391Z,7.93
2023-03-26T21:29:00.954Z,9.90
2023-03-26T21:31:34.822Z,12.18
2023-03-26T21:34:03.916Z,8.95
2023-03-26T21:36:32.331Z,10.67
2023-03-26T21:39:01.812Z,12.65
2023-03-26T21:41:35.834Z,10.02
2023-03-26T21:44:05.499Z,5.90
2023-03-26T21:46:33.729Z,9.77
2023-03-26T21:49:01.679Z,6.18
2023-03-26T21:51:30.384Z,6.47
2023-03-26T21:53:58.437Z,5.88
2023-03-26T21:56:37.212Z,9.95
2023-03-26T21:59:11.859Z,15.20
2023-03-26T22:01:43.507Z,10.40
2023-03-26T22:04:14.376Z,4.70
2023-03-26T22:06:44.938Z,15.18
2023-03-26T22:09:13.942Z,9.15
2023-03-26T22:11:45.322Z,9.65
2023-03-26T22:14:14.427Z,8.10
2023-03-26T22:16:42.657Z,1.85
2023-03-26T22:19:11.033Z,5.35
2023-03-26T22:21:39.184Z,8.55
2023-03-26T22:24:07.573Z,6.65
2023-03-26T22:26:37.427Z,7.90
2023-03-26T22:29:05.999Z,9.32
2023-03-26T22:31:36.118Z,5.63
2023-03-26T22:34:05.322Z,3.50
2023-03-26T22:36:33.185Z,8.30
2023-03-26T22:39:01.796Z,9.35
2023-03-26T22:41:30.583Z,7.70
2023-03-26T22:44:09.354Z,9.77
2023-03-26T22:49:35.946Z,6.40
2023-03-26T22:52:04.219Z,6.00
2023-03-26T22:54:32.055Z,7.97
2023-03-26T22:56:59.854Z,3.97
2023-03-26T22:59:28.317Z,7.55
2023-03-26T23:01:57.884Z,8.57
2023-03-26T23:04:31.228Z,8.18
2023-03-26T23:07:00.407Z,7.35
2023-03-26T23:09:28.145Z,10.98
2023-03-26T23:11:56.460Z,4.85
2023-03-26T23:14:24.332Z,4.47
2023-03-26T23:16:52.112Z,7.28
2023-03-26T23:19:21.181Z,8.13
2023-03-26T23:21:49.808Z,5.28
2023-03-26T23:24:17.518Z,6.38
2023-03-26T23:26:50.582Z,11.07
2023-03-26T23:29:19.618Z,6.63
2023-03-26T23:31:47.722Z,5.47
2023-03-26T23:34:17.022Z,8.10
2023-03-26T23:36:46.665Z,13.73
2023-03-26T23:39:34.608Z,7.20
2023-03-26T23:42:02.824Z,7.05
2023-03-26T23:44:32.224Z,4.65
2023-03-26T23:47:00.459Z,7.57
2023-03-26T23:49:28.248Z,6.10
2023-03-26T23:51:57.352Z,8.60
2023-03-26T23:54:25.595Z,6.00
2023-03-26T23:56:55.640Z,5.57
2023-03-26T23:59:23.544Z,7.88
